aerodrome LA FERTE GAUCHER, LFFG, pilots, aviation, flying | pilotspace.eu

LA FERTE GAUCHER

aerodrome LA FERTE GAUCHER

ICAO/ID: LFFG
France
web: Réservé au parachutisme et aux avions de servitude
show on the map

LFPM 010100Z AUTO 34004KT 9999 NSC 16/15 Q1013

TAF LFPG 312300Z 0100/0206 36005KT CAVOK TEMPO 0100/0108 VRB03KT BECMG 0107/0109 04005KT TEMPO 0204/0206 4000 SHRA SCT030TCU TX27/0114Z TN15/0105Z

general information

altitude: 538 ft
latitude: 48 45 21 N
longitude: 003 16 36 E

traffic information

RWY: 05/23: 3,609 ft (1,100 m) — surface unknown
report copyright

Online pilot logbook: free for each registered member! http://www.pilotlogbook.eu


last flights

RECENTLY ADDED

Poprad

Poprad

31/07/2014 (13x)

Jenki

Let.příručka ALTO

09/03/2014 (13x)

Roman Máca

Let.příručka ALTO

09/03/2014 (4x)

Roman Máca

ULRBK

08/02/2014 (15x)

northwolf

L-13 AC - akrobacie

L-13 AC - akrobacie

05/02/2014 (17x)

Davidlet

inzerát

inzerát

28/09/2013 (22x)

béza48

landing LZIB

landing LZIB

17/09/2013 (25x)

Kovino

tulák zelený

tulák zelený

17/09/2013 (20x)

Ivan Wolf